ETIH 192356Z AUTO 00000KT M M CLR 15/14 A3021 RMK AO2 SLP217 60002 T01480138 10248 20148 58006 RVRNO ETIH 192256Z AUTO 21004KT M M FEW039 SCT100 16/14 A3022 RMK AO2 DZE2158RAB2158E09DZB09E19RAB19E46DZB46E50 SLP220 P0002 T01560136 RVRNO ETIH 192250Z AUTO 08003KT M M SCT042 BKN100 16/14 A3021 RMK AO2 DZE2158RAB2158E09DZB09E19RAB19E46DZB46E50 SLP217 RVRNO $ ETIH 192156Z AUTO 29004KT M -DZ SCT080 17/13 A3026 RMK AO2 LTG DSNT E DZB13E27RAB27E39DZB46 SLP236 P0000 T01700131 402830062 RVRNO ETIH 192146Z AUTO 32003KT M -DZ SCT080 17/13 A3025 RMK AO2 LTG DSNT E DZB13E27RAB27E39DZB46 SLP232 RVRNO $ ETIH 192139Z AUTO 33004KT M M SCT070 BKN085 17/13 A3026 RMK AO2 DZB13E27RAB27E39 SLP236 RVRNO $ ETIH 192113Z AUTO 33004KT M -DZ FEW065 SCT090 BKN150 18/12 A3025 RMK AO2 LTG DSNT E DZB13 PRESRR SLP230 RVRNO $ ETIH 192056Z AUTO 31008G22KT M M FEW060 FEW075 FEW100 BKN140 18/12 A3023 RMK AO2 LTG DSNT NE PRESRR SLP223 60000 T01840122 50031 RVRNO ETIH 191956Z AUTO 27003KT M M FEW065 19/15 A3015 RMK AO2 LTG DSNT S RAB13E24DZB24E27RAB27E28 SLP198 P0000 T01880147 RVRNO ETIH 191928Z AUTO 00000KT M M BKN070 OVC140 19/15 A3015 RMK AO2 LTG DSNT W RAB13E24DZB24E27RAB27E28 SLP200 RVRNO $ ETIH 191913Z AUTO 27003KT M -RA SCT075 BKN140 21/14 A3015 RMK AO2 RAB13 SLP198 RVRNO $ ETIH 191856Z AUTO 27004KT M M SCT080 21/15 A3015 RMK AO2 SLP198 T02070146 RVRNO ETIH 191756Z AUTO 00000KT M M CLR 25/14 A3014 RMK AO2 SLP193 60000 T02490140 10283 20248 53000 RVRNO ETIH 191656Z AUTO 00000KT M M CLR 27/12 A3014 RMK AO2 SLP196 T02670120 RVRNO ETIH 191556Z AUTO 00000KT M M CLR 27/11 A3013 RMK AO2 SLP195 T02730109 RVRNO ETIH 191456Z AUTO 13004KT M M CLR 28/12 A3013 RMK AO2 SLP193 60000 T02760124 57015 RVRNO ETIH 191356Z AUTO 15003KT M M CLR 27/12 A3016 RMK AO2 SLP203 T02720116 RVRNO ETIH 191256Z AUTO 15005KT M M CLR 26/11 A3017 RMK AO2 DZB39E42 SLP209 P0000 T02630108 RVRNO ETIH 191242Z AUTO 18003KT M M CLR 26/11 A3018 RMK AO2 DZB39E42 SLP210 RVRNO $ ETIH 191239Z AUTO 16003KT M -DZ CLR 26/11 A3018 RMK AO2 DZB39 SLP212 RVRNO $ ETIH 191156Z AUTO 18003KT M M CLR 25/10 A3018 RMK AO2 SLP212 T02500101 10252 20146 57012 RVRNO ETIH 191056Z AUTO 13005KT M M CLR 24/11 A3020 RMK AO2 SLP219 T02360106 RVRNO $ ETIH 190956Z AUTO 12004KT M M CLR 22/09 A3021 RMK AO2 SLP224 T02180090 RVRNO $ ETIH 190856Z AUTO 15004KT M M CLR 21/09 A3022 RMK AO2 SLP226 T02110087 57005 RVRNO $ ETIH 190756Z AUTO 11006KT M M CLR 19/07 A3022 RMK AO2 SLP226 T01880066 RVRNO $ ETIH 190656Z AUTO 11006KT M M CLR 17/06 A3023 RMK AO2 SLP229 T01680063 RVRNO $ ETIH 190556Z AUTO 00000KT M M CLR 15/07 A3023 RMK AO2 SLP227 T01450073 10145 20062 55000 RVRNO $ ETIH 190456Z AUTO 00000KT M M CLR 08/06 A3023 RMK AO2 SLP233 T00820057 RVRNO ETIH 190356Z AUTO 00000KT M M CLR 06/04 A3023 RMK AO2 SLP233 T00630043 RVRNO ETIH 190256Z AUTO 00000KT M M CLR 08/05 A3023 RMK AO2 SLP233 T00760049 56004 RVRNO ETIH 190156Z AUTO 28004KT M M CLR 08/06 A3023 RMK AO2 SLP231 T00830058 RVRNO ETIH 190056Z AUTO 00000KT M M CLR 09/07 A3024 RMK AO2 SLP234 T00860066 RVRNO ETIH 182356Z AUTO 00000KT M M CLR 10/07 A3025 RMK AO2 SLP236 T00980072 10212 20097 58003 RVRNO ETIH 182256Z AUTO 00000KT M M CLR 10/08 A3025 RMK AO2 SLP238 T01020078 RVRNO ETIH 182156Z AUTO 00000KT M M CLR 11/09 A3026 RMK AO2 SLP241 T01070085 402420088 RVRNO ETIH 182056Z AUTO 00000KT M M CLR 13/09 A3025 RMK AO2 SLP236 T01290093 51006 RVRNO ETIH 181956Z AUTO 27004KT M M CLR 15/10 A3025 RMK AO2 SLP236 T01520100 RVRNO ETIH 181856Z AUTO 00000KT M M CLR 18/11 A3024 RMK AO2 SLP233 T01760107 RVRNO ETIH 181756Z AUTO 00000KT M M CLR 21/10 A3024 RMK AO2 SLP233 60000 T02130095 10242 20213 54000 RVRNO ETIH 181656Z AUTO 15003KT M M CLR 23/09 A3024 RMK AO2 SLP233 T02290093 RVRNO ETIH 181556Z AUTO 15004KT M M FEW060 23/09 A3024 RMK AO2 SLP234 T02340094 RVRNO ETIH 181456Z AUTO 07004KT M M FEW060 BKN080 23/10 A3024 RMK AO2 SLP234 60000 T02280102 57009 RVRNO ETIH 181356Z AUTO 13005KT M M SCT055 24/11 A3024 RMK AO2 SLP233 T02370107 RVRNO ETIH 181256Z AUTO 08007KT M M SCT050 23/10 A3026 RMK AO2 DZE1158 SLP241 P0000 T02260104 RVRNO

METAR Messwerte "HOHENFELS (USA-A" ETIH

Zurück zur Übersicht

Ortsname
Ländercode / m ü. NN
Zeit Temperatur Taupunkt Rel.
Luftfeuchte
Luftdruck:
Altimeter
NN
Station
Wind in Beaufort
(Knoten)
Sichtweite
(Meter)
Wolken
(Meter über Grund)
Wettererscheinung
HOHENFELS (USA-A
DE 436
Fr 20.05. 01:56151494 %1023
1023
971
Windstill   
HOHENFELS (USA-A
DE 436
Fr 20.05. 00:56161488 %1023
1023
971
SSW 2 (4) Wolkig (3000)
Leicht bewölkt (1200)
 
HOHENFELS (USA-A
DE 436
Fr 20.05. 00:50161488 %1023
1023
971
O 2 (3) Stark bewölkt (3000)
Wolkig (1300)
 
HOHENFELS (USA-A
DE 436
Do 19.05. 23:56171377 %1025
1025
973
WNW 2 (4) Wolkig (2400)Nieselregen (schwach)
HOHENFELS (USA-A
DE 436
Do 19.05. 23:46171377 %1024
1024
972
NW 2 (3) Wolkig (2400)Nieselregen (schwach)
HOHENFELS (USA-A
DE 436
Do 19.05. 23:39171377 %1025
1025
973
NNW 2 (4) Stark bewölkt (2600)
Wolkig (2100)
 
HOHENFELS (USA-A
DE 436
Do 19.05. 23:13181268 %1024
1024
972
NNW 2 (4) Stark bewölkt (4600)
Wolkig (2700)
Leicht bewölkt (2000)
Nieselregen (schwach)
HOHENFELS (USA-A
DE 436
Do 19.05. 22:56181268 %1024
1024
972
NW 3 (8) - 6 (22) Stark bewölkt (4300)
Leicht bewölkt (3000)
Leicht bewölkt (2300)
Leicht bewölkt (1800)
 
HOHENFELS (USA-A
DE 436
Do 19.05. 21:56191578 %1021
1020
969
W 2 (3) Leicht bewölkt (2000) 
HOHENFELS (USA-A
DE 436
Do 19.05. 21:28191578 %1021
1020
969
Windstill Bedeckt (4300)
Stark bewölkt (2100)
 
HOHENFELS (USA-A
DE 436
Do 19.05. 21:13211464 %1021
1020
969
W 2 (3) Stark bewölkt (4300)
Wolkig (2300)
Regen (schwach)
HOHENFELS (USA-A
DE 436
Do 19.05. 20:56211569 %1021
1020
969
W 2 (4) Wolkig (2400) 
HOHENFELS (USA-A
DE 436
Do 19.05. 19:56251450 %1021
1019
969
Windstill   
HOHENFELS (USA-A
DE 436
Do 19.05. 18:56271239 %1021
1019
969
Windstill   
HOHENFELS (USA-A
DE 436
Do 19.05. 17:56271137 %1020
1018
968
Windstill   
HOHENFELS (USA-A
DE 436
Do 19.05. 16:56281237 %1020
1018
968
SO 2 (4)   
HOHENFELS (USA-A
DE 436
Do 19.05. 15:56271239 %1021
1019
969
SSO 2 (3)   
HOHENFELS (USA-A
DE 436
Do 19.05. 14:56261139 %1022
1020
970
SSO 2 (5)   
HOHENFELS (USA-A
DE 436
Do 19.05. 14:42261139 %1022
1020
970
S 2 (3)   
HOHENFELS (USA-A
DE 436
Do 19.05. 14:39261139 %1022
1020
970
SSO 2 (3)  Nieselregen (schwach)
HOHENFELS (USA-A
DE 436
Do 19.05. 13:56251039 %1022
1020
970
S 2 (3)   
HOHENFELS (USA-A
DE 436
Do 19.05. 12:56241144 %1023
1021
971
SO 2 (5)   
HOHENFELS (USA-A
DE 436
Do 19.05. 11:5622943 %1023
1022
971
OSO 2 (4)   
HOHENFELS (USA-A
DE 436
Do 19.05. 10:5621946 %1023
1022
971
SSO 2 (4)   
HOHENFELS (USA-A
DE 436
Do 19.05. 09:5619746 %1023
1022
971
OSO 2 (6)   
HOHENFELS (USA-A
DE 436
Do 19.05. 08:5617648 %1024
1024
972
OSO 2 (6)   
HOHENFELS (USA-A
DE 436
Do 19.05. 07:5615759 %1024
1024
972
Windstill   
HOHENFELS (USA-A
DE 436
Do 19.05. 06:568687 %1024
1025
972
Windstill   
HOHENFELS (USA-A
DE 436
Do 19.05. 05:566487 %1024
1026
972
Windstill   
HOHENFELS (USA-A
DE 436
Do 19.05. 04:568581 %1024
1025
972
Windstill   
HOHENFELS (USA-A
DE 436
Do 19.05. 03:568687 %1024
1025
972
W 2 (4)   
HOHENFELS (USA-A
DE 436
Do 19.05. 02:569787 %1024
1025
972
Windstill   
HOHENFELS (USA-A
DE 436
Do 19.05. 01:5610782 %1024
1025
972
Windstill   
HOHENFELS (USA-A
DE 436
Do 19.05. 00:5610887 %1024
1025
972
Windstill   
HOHENFELS (USA-A
DE 436
Mi 18.05. 23:5611987 %1025
1026
973
Windstill   
HOHENFELS (USA-A
DE 436
Mi 18.05. 22:5613977 %1024
1024
972
Windstill   
HOHENFELS (USA-A
DE 436
Mi 18.05. 21:56151072 %1024
1024
972
W 2 (4)   
HOHENFELS (USA-A
DE 436
Mi 18.05. 20:56181164 %1024
1024
972
Windstill   
HOHENFELS (USA-A
DE 436
Mi 18.05. 19:56211049 %1024
1023
972
Windstill   
HOHENFELS (USA-A
DE 436
Mi 18.05. 18:5623941 %1024
1023
972
SSO 2 (3)   
HOHENFELS (USA-A
DE 436
Mi 18.05. 17:5623941 %1024
1023
972
SSO 2 (4) Leicht bewölkt (1800) 
HOHENFELS (USA-A
DE 436
Mi 18.05. 16:56231044 %1024
1023
972
ONO 2 (4) Stark bewölkt (2400)
Leicht bewölkt (1800)
 
HOHENFELS (USA-A
DE 436
Mi 18.05. 15:56241144 %1024
1022
972
SO 2 (5) Wolkig (1700) 
HOHENFELS (USA-A
DE 436
Mi 18.05. 14:56231044 %1025
1024
973
O 3 (7) Wolkig (1500) 

Altimeter: Einstellung am Altimeter (Höhenmesser), die Höhe 0 muss auf diesen Luftdruckwert zeigen, damit das Gerät die Stationshöhe richtig anzeigt.

NN: Luftdruck reduziert auf "Normal Null", auf Meereshöhe, dieser von der Temperatur abhängige Wert wird bisweilen unkorrekt einfach als "Luftdruck" bezeichnet. Eigentlich nur eine fiktive Größe, die es erlaubt, Stationen auf unterschiedlichen Höhen miteinander zu vergleichen.

Station: Realer Luftdruck an der Station.